Time;durP1;ratioP1;P1;durP2;ratioP2;P2;SDS_P1;SDS_P2;PMS_P1;PMS_P2;Temp;Humidity;BMP_temperature;BMP_pressure;BME280_temperature;BME280_humidity;BME280_pressure;Samples;Min_cycle;Max_cycle;Signal;HPM_P1;HPM_P2
2021/06/23 00:01:43;;;;;;;7.90;7.20;;;22.50;99.90;;;;;;5075759;28;20624;-65
2021/06/23 00:04:08;;;;;;;9.05;8.15;;;22.50;99.90;;;;;;5074639;28;20228;-61
2021/06/23 00:06:34;;;;;;;7.93;6.40;;;22.50;99.90;;;;;;5075696;28;20185;-65
2021/06/23 00:08:59;;;;;;;6.97;6.35;;;22.60;99.90;;;;;;5075803;28;20608;-59
2021/06/23 00:11:29;;;;;;;8.43;7.47;;;22.60;99.90;;;;;;5075569;28;20534;-58
2021/06/23 00:13:56;;;;;;;9.80;7.68;;;22.50;99.90;;;;;;5074871;28;20174;-65
2021/06/23 00:16:21;;;;;;;7.80;7.10;;;22.50;99.90;;;;;;5075655;28;20530;-65
2021/06/23 00:18:47;;;;;;;10.20;7.80;;;22.50;99.90;;;;;;5074274;28;20697;-64
2021/06/23 00:21:12;;;;;;;8.00;7.35;;;22.40;99.90;;;;;;5075875;28;20180;-58
2021/06/23 00:23:38;;;;;;;8.05;7.25;;;22.30;99.90;;;;;;5075413;28;20721;-64
2021/06/23 00:26:03;;;;;;;11.13;9.98;;;22.40;99.90;;;;;;5075812;28;20255;-65
2021/06/23 00:28:30;;;;;;;13.70;12.50;;;22.40;99.90;;;;;;5074696;28;20598;-60
2021/06/23 00:30:56;;;;;;;11.93;10.70;;;22.40;99.90;;;;;;5075186;28;20231;-64
2021/06/23 00:33:29;;;;;;;12.73;11.50;;;22.50;99.90;;;;;;5074313;28;20172;-58
2021/06/23 00:35:54;;;;;;;12.70;11.40;;;22.40;99.90;;;;;;5075263;28;20678;-59
2021/06/23 00:38:20;;;;;;;11.00;10.10;;;22.40;99.90;;;;;;5075124;28;20191;-65
2021/06/23 00:40:45;;;;;;;11.13;10.20;;;22.30;99.90;;;;;;5075019;28;20221;-59
2021/06/23 00:43:13;;;;;;;10.00;9.13;;;22.20;99.90;;;;;;5074122;28;20217;-59
2021/06/23 00:45:39;;;;;;;11.57;9.98;;;22.10;99.90;;;;;;5075559;28;20183;-60
2021/06/23 00:48:08;;;;;;;10.20;9.30;;;22.10;99.90;;;;;;5075161;28;20535;-61
2021/06/23 00:50:35;;;;;;;9.85;8.95;;;22.00;99.90;;;;;;5074272;28;20183;-60
2021/06/23 00:53:01;;;;;;;10.48;9.15;;;22.10;99.90;;;;;;5074921;28;20166;-64
2021/06/23 00:55:26;;;;;;;9.57;8.77;;;22.10;99.90;;;;;;5075070;28;20167;-65
2021/06/23 00:57:54;;;;;;;10.63;9.52;;;22.00;99.90;;;;;;5075413;28;20595;-60
2021/06/23 01:00:31;;;;;;;10.57;9.57;;;22.00;99.90;;;;;;5075328;28;20175;-56
2021/06/23 01:02:58;;;;;;;9.45;8.55;;;21.80;99.90;;;;;;5073382;28;20202;-64
2021/06/23 01:05:24;;;;;;;11.30;10.10;;;21.70;99.90;;;;;;5074954;28;20292;-60
2021/06/23 01:07:50;;;;;;;10.30;9.17;;;21.80;99.90;;;;;;5074012;28;20190;-59
2021/06/23 01:10:16;;;;;;;9.10;8.30;;;21.70;99.90;;;;;;5074247;28;20177;-65
2021/06/23 01:12:54;;;;;;;11.23;9.00;;;21.70;99.90;;;;;;5074792;28;20173;-60
2021/06/23 01:15:19;;;;;;;10.60;9.60;;;21.60;99.90;;;;;;5073467;28;20269;-65
2021/06/23 01:17:48;;;;;;;8.40;7.60;;;21.40;99.90;;;;;;5073169;28;20241;-60
2021/06/23 01:20:14;;;;;;;9.85;8.90;;;21.50;99.90;;;;;;5073485;28;20170;-65
2021/06/23 01:22:43;;;;;;;11.60;10.50;;;21.60;99.90;;;;;;5074132;28;20187;-60
2021/06/23 01:25:12;;;;;;;10.85;9.85;;;21.60;99.90;;;;;;5073964;28;20214;-60
2021/06/23 01:27:40;;;;;;;9.65;8.82;;;21.60;99.90;;;;;;5074281;28;20221;-65
2021/06/23 01:30:07;;;;;;;10.30;9.30;;;21.60;99.90;;;;;;5073574;28;20179;-60
2021/06/23 01:32:33;;;;;;;9.70;8.70;;;21.60;99.90;;;;;;5071729;28;20194;-60
2021/06/23 01:35:00;;;;;;;8.57;7.77;;;21.60;99.90;;;;;;5074166;28;20206;-59
2021/06/23 01:37:26;;;;;;;8.13;7.37;;;21.70;99.90;;;;;;5074560;28;20230;-61
2021/06/23 01:39:51;;;;;;;8.97;8.17;;;21.70;99.90;;;;;;5073521;28;20236;-65
2021/06/23 01:42:17;;;;;;;7.85;7.15;;;21.70;99.90;;;;;;5072552;28;20178;-64
2021/06/23 01:44:42;;;;;;;7.63;6.93;;;21.60;99.90;;;;;;5073871;28;20205;-59
2021/06/23 01:47:08;;;;;;;8.83;8.00;;;21.40;99.90;;;;;;5074029;28;20194;-64
2021/06/23 01:49:33;;;;;;;9.23;8.23;;;21.30;99.90;;;;;;5074113;28;20227;-60
2021/06/23 01:51:59;;;;;;;7.67;6.90;;;21.10;99.90;;;;;;5074402;28;20177;-65
2021/06/23 01:54:25;;;;;;;9.27;7.97;;;21.00;99.90;;;;;;5074062;28;20555;-60
2021/06/23 01:56:50;;;;;;;8.63;7.77;;;21.10;99.90;;;;;;5073059;28;20219;-63
2021/06/23 01:59:16;;;;;;;8.70;8.00;;;21.20;99.90;;;;;;5073728;28;20178;-64
2021/06/23 02:01:44;;;;;;;8.53;7.70;;;21.10;99.90;;;;;;5073226;28;20182;-56
2021/06/23 02:04:27;;;;;;;8.40;7.60;;;21.20;99.90;;;;;;5071418;28;20210;-59
2021/06/23 02:07:08;;;;;;;6.93;6.23;;;21.30;99.90;;;;;;5073734;28;20217;-64
2021/06/23 02:09:34;;;;;;;9.80;7.13;;;21.30;99.90;;;;;;5073973;28;20159;-59
2021/06/23 02:12:25;;;;;;;8.20;6.60;;;21.10;99.90;;;;;;5073629;28;20171;-65
2021/06/23 02:14:53;;;;;;;10.50;7.17;;;21.00;99.90;;;;;;5045881;28;20200;-64
2021/06/23 02:17:22;;;;;;;13.43;8.00;;;20.90;99.90;;;;;;5071562;28;20621;-63
2021/06/23 02:19:50;;;;;;;7.83;7.13;;;20.90;99.90;;;;;;5074117;28;20654;-64
2021/06/23 02:22:23;;;;;;;9.87;7.73;;;21.00;99.90;;;;;;5072966;28;20288;-64
2021/06/23 02:24:53;;;;;;;9.17;8.37;;;21.20;99.90;;;;;;5073491;28;20289;-64
2021/06/23 02:27:20;;;;;;;11.77;9.47;;;21.30;99.90;;;;;;5073491;28;20236;-65
2021/06/23 02:29:47;;;;;;;8.63;7.83;;;21.40;99.90;;;;;;5073469;28;20159;-64
2021/06/23 02:32:17;;;;;;;7.67;6.97;;;21.40;99.90;;;;;;5073397;28;20193;-64
2021/06/23 02:34:47;;;;;;;9.30;8.40;;;21.40;99.90;;;;;;5072996;28;20650;-64
2021/06/23 02:37:13;;;;;;;9.87;8.97;;;21.40;99.90;;;;;;5073163;28;20199;-58
2021/06/23 02:39:39;;;;;;;8.90;7.23;;;21.50;99.90;;;;;;5073437;28;20300;-59
2021/06/23 02:42:06;;;;;;;8.53;7.73;;;21.60;99.90;;;;;;5075586;28;20642;-54
2021/06/23 02:44:32;;;;;;;11.03;8.63;;;21.50;99.90;;;;;;5077180;28;20196;-64
2021/06/23 02:46:59;;;;;;;7.60;6.90;;;21.60;99.90;;;;;;5077763;28;20265;-65
2021/06/23 02:49:25;;;;;;;9.30;7.37;;;22.20;99.90;;;;;;5077234;28;20583;-60
2021/06/23 02:51:52;;;;;;;8.23;7.23;;;21.60;99.90;;;;;;5076523;28;20714;-63
2021/06/23 02:54:19;;;;;;;8.60;7.80;;;21.50;99.90;;;;;;5076765;28;20268;-58
2021/06/23 02:56:44;;;;;;;7.53;6.83;;;21.20;99.90;;;;;;5077762;28;20244;-64
2021/06/23 02:59:11;;;;;;;8.13;7.33;;;20.90;99.90;;;;;;5076392;28;20171;-64
2021/06/23 03:01:37;;;;;;;7.70;6.90;;;20.80;99.90;;;;;;5077082;28;20178;-59
2021/06/23 03:04:03;;;;;;;7.93;6.70;;;20.80;99.90;;;;;;5076872;28;20202;-65
2021/06/23 03:06:29;;;;;;;8.00;6.63;;;20.80;99.90;;;;;;5077035;28;20174;-65
2021/06/23 03:08:54;;;;;;;6.60;6.00;;;20.80;99.90;;;;;;5076924;28;20571;-64
2021/06/23 03:11:20;;;;;;;6.53;5.73;;;20.90;99.90;;;;;;5077005;28;20167;-60
2021/06/23 03:13:45;;;;;;;6.77;6.10;;;21.00;99.90;;;;;;5075777;28;20213;-56
2021/06/23 03:16:11;;;;;;;7.07;6.47;;;20.90;99.90;;;;;;5076717;28;20166;-58
2021/06/23 03:18:37;;;;;;;7.10;6.50;;;20.80;99.90;;;;;;5075509;28;20256;-64
2021/06/23 03:21:05;;;;;;;6.53;5.93;;;20.80;99.90;;;;;;5076676;28;20257;-64
2021/06/23 03:23:31;;;;;;;6.77;6.17;;;21.00;99.90;;;;;;5076593;28;20690;-65
2021/06/23 03:25:57;;;;;;;6.53;6.00;;;21.00;99.90;;;;;;5075657;28;20187;-64
2021/06/23 03:28:23;;;;;;;6.50;5.90;;;21.00;99.90;;;;;;5077331;28;20200;-65
2021/06/23 03:30:49;;;;;;;6.10;5.33;;;21.10;99.90;;;;;;5075621;28;20526;-57
2021/06/23 03:33:15;;;;;;;7.27;5.63;;;21.30;99.90;;;;;;5076455;28;20178;-60
2021/06/23 03:35:41;;;;;;;7.40;6.03;;;21.40;99.90;;;;;;5076618;28;20171;-58
2021/06/23 03:38:06;;;;;;;7.00;6.30;;;21.40;99.90;;;;;;5076434;28;20186;-60
2021/06/23 03:40:32;;;;;;;8.37;5.27;;;21.40;99.90;;;;;;5076796;28;20732;-64
2021/06/23 03:42:57;;;;;;;5.67;5.17;;;21.30;99.90;;;;;;5075145;28;20528;-59
2021/06/23 03:45:23;;;;;;;5.57;5.07;;;21.30;99.90;;;;;;5076170;28;20208;-64
2021/06/23 03:47:48;;;;;;;6.00;5.40;;;21.40;99.90;;;;;;5075272;28;20190;-58
2021/06/23 03:50:16;;;;;;;7.83;5.77;;;21.50;99.90;;;;;;5075711;28;20173;-64
2021/06/23 03:52:42;;;;;;;5.97;5.47;;;21.60;99.90;;;;;;5075619;28;20182;-60
2021/06/23 03:55:19;;;;;;;6.53;5.20;;;21.70;99.90;;;;;;5074974;28;20186;-65
2021/06/23 03:57:45;;;;;;;7.37;5.80;;;21.70;99.90;;;;;;5075793;28;20674;-64
2021/06/23 04:00:11;;;;;;;6.60;5.60;;;21.70;99.90;;;;;;5075106;28;20256;-64
2021/06/23 04:02:37;;;;;;;5.67;5.17;;;21.60;99.90;;;;;;5075484;28;20225;-65
2021/06/23 04:05:03;;;;;;;5.80;5.30;;;21.70;99.90;;;;;;5075969;28;20217;-64
2021/06/23 04:07:28;;;;;;;5.87;5.37;;;21.70;99.90;;;;;;5074700;28;20207;-57
2021/06/23 04:09:54;;;;;;;6.45;5.85;;;21.70;99.90;;;;;;5075597;28;20163;-64
2021/06/23 04:12:19;;;;;;;6.77;5.10;;;21.70;99.90;;;;;;5074628;28;20170;-65
2021/06/23 04:14:45;;;;;;;6.07;5.47;;;21.70;99.90;;;;;;5075663;28;20178;-65
2021/06/23 04:17:10;;;;;;;6.40;5.80;;;21.80;99.90;;;;;;5075895;28;20270;-65
2021/06/23 04:19:36;;;;;;;7.67;5.57;;;21.90;99.90;;;;;;5075619;28;20171;-64
2021/06/23 04:22:01;;;;;;;5.93;5.27;;;21.90;99.90;;;;;;5075463;28;20180;-65
2021/06/23 04:24:27;;;;;;;7.50;6.30;;;22.00;99.90;;;;;;5075668;28;20601;-59
2021/06/23 04:26:53;;;;;;;5.90;5.40;;;22.00;99.90;;;;;;5074652;28;20301;-59
2021/06/23 04:29:18;;;;;;;7.00;5.60;;;22.00;99.90;;;;;;5075197;28;20190;-55
2021/06/23 04:31:44;;;;;;;6.70;6.10;;;22.00;99.90;;;;;;5075245;28;20178;-56
2021/06/23 04:34:10;;;;;;;7.63;5.75;;;21.90;99.90;;;;;;5074503;28;20261;-64
2021/06/23 04:36:35;;;;;;;6.63;6.03;;;22.00;99.90;;;;;;5067169;28;20691;-64
2021/06/23 04:39:01;;;;;;;7.05;6.35;;;22.10;99.90;;;;;;5055168;28;20180;-64
2021/06/23 04:41:26;;;;;;;6.43;5.83;;;22.00;99.90;;;;;;5054968;28;20536;-64
2021/06/23 04:43:52;;;;;;;5.78;5.28;;;22.00;99.90;;;;;;5053959;28;20223;-58
2021/06/23 04:46:17;;;;;;;5.43;4.93;;;22.00;99.90;;;;;;5055032;28;20250;-60
2021/06/23 04:48:43;;;;;;;5.00;4.60;;;22.00;99.90;;;;;;5053994;28;20578;-64
2021/06/23 04:51:08;;;;;;;5.13;4.70;;;22.00;99.90;;;;;;5055222;28;20187;-64
2021/06/23 04:53:34;;;;;;;5.40;4.85;;;21.90;99.90;;;;;;5053865;28;20195;-59
2021/06/23 04:55:59;;;;;;;5.90;5.32;;;21.80;99.90;;;;;;5055355;28;20179;-64
2021/06/23 04:58:25;;;;;;;4.72;4.38;;;21.80;99.90;;;;;;5054749;28;20639;-63
2021/06/23 05:00:51;;;;;;;4.90;4.50;;;22.20;99.90;;;;;;5053765;28;20501;-64
2021/06/23 05:03:16;;;;;;;5.40;4.93;;;21.90;99.90;;;;;;5054542;28;20237;-58
2021/06/23 05:05:42;;;;;;;4.97;4.47;;;21.90;99.90;;;;;;5054337;28;20253;-63
2021/06/23 05:08:08;;;;;;;5.10;4.32;;;21.90;99.90;;;;;;5054825;28;20195;-55
2021/06/23 05:10:34;;;;;;;6.23;4.73;;;21.80;99.90;;;;;;5053813;28;20191;-55
2021/06/23 05:13:00;;;;;;;7.80;4.40;;;21.90;99.90;;;;;;5054345;28;20163;-56
2021/06/23 05:15:26;;;;;;;4.90;4.50;;;21.90;99.90;;;;;;5053697;28;20186;-57
2021/06/23 05:17:52;;;;;;;4.80;4.40;;;22.00;99.90;;;;;;5054397;28;20225;-57
2021/06/23 05:20:18;;;;;;;4.60;4.20;;;22.00;99.90;;;;;;5054699;28;20183;-58
2021/06/23 05:22:48;;;;;;;5.13;4.13;;;21.80;99.90;;;;;;5053112;28;20198;-64
2021/06/23 05:25:14;;;;;;;5.18;4.68;;;21.80;99.90;;;;;;5054975;28;20215;-57
2021/06/23 05:27:40;;;;;;;4.77;4.37;;;21.80;99.90;;;;;;5054075;28;20193;-58
2021/06/23 05:30:06;;;;;;;4.82;4.35;;;21.90;99.90;;;;;;5053770;28;20559;-57
2021/06/23 05:32:32;;;;;;;4.80;4.30;;;22.00;99.90;;;;;;5054158;28;20171;-64
2021/06/23 05:34:57;;;;;;;4.90;4.40;;;22.00;99.90;;;;;;5053176;28;20190;-64
2021/06/23 05:37:23;;;;;;;4.97;4.57;;;22.10;99.90;;;;;;5054008;28;20187;-63
2021/06/23 05:39:48;;;;;;;6.03;4.60;;;22.10;99.90;;;;;;5054025;28;20166;-62
2021/06/23 05:42:14;;;;;;;5.53;4.43;;;22.10;99.90;;;;;;5053244;28;20681;-64
2021/06/23 05:44:40;;;;;;;4.70;4.30;;;22.20;99.90;;;;;;5054099;28;20192;-57
2021/06/23 05:47:05;;;;;;;4.68;3.92;;;22.20;99.90;;;;;;5053917;28;20188;-64
2021/06/23 05:49:31;;;;;;;7.57;4.55;;;22.40;99.90;;;;;;5053933;28;20256;-57
2021/06/23 05:51:56;;;;;;;5.00;4.60;;;22.50;99.90;;;;;;5053353;28;20193;-62
2021/06/23 05:54:22;;;;;;;4.25;3.95;;;22.60;99.90;;;;;;5053763;28;20185;-59
2021/06/23 05:56:48;;;;;;;5.00;4.60;;;22.80;99.90;;;;;;5054420;28;20193;-58
2021/06/23 05:59:13;;;;;;;6.25;5.65;;;23.10;99.90;;;;;;5053389;28;20653;-63
2021/06/23 06:01:39;;;;;;;6.40;5.28;;;23.30;99.90;;;;;;5053992;28;20265;-58
2021/06/23 06:04:04;;;;;;;5.57;5.07;;;23.40;99.90;;;;;;5052733;28;20709;-64
2021/06/23 06:06:30;;;;;;;4.47;4.05;;;23.50;99.90;;;;;;5053719;28;20615;-56
2021/06/23 06:08:55;;;;;;;7.05;4.30;;;23.30;99.90;;;;;;5053758;28;20531;-60
2021/06/23 06:11:21;;;;;;;4.75;4.30;;;23.20;99.90;;;;;;5052644;28;20255;-59
2021/06/23 06:13:47;;;;;;;4.88;4.47;;;23.10;99.90;;;;;;5063557;28;20261;-64
2021/06/23 06:16:12;;;;;;;5.00;4.60;;;23.00;99.90;;;;;;5072429;28;20194;-58
2021/06/23 06:18:38;;;;;;;5.20;4.70;;;23.00;99.90;;;;;;5073377;28;20206;-58
2021/06/23 06:21:04;;;;;;;4.65;4.20;;;22.90;99.90;;;;;;5073682;28;20202;-57
2021/06/23 06:23:30;;;;;;;5.85;4.97;;;23.00;99.90;;;;;;5072535;28;20223;-56
2021/06/23 06:25:55;;;;;;;6.30;4.75;;;23.00;99.90;;;;;;5074289;28;20170;-64
2021/06/23 06:28:21;;;;;;;4.88;4.40;;;22.80;99.90;;;;;;5073912;28;20204;-58
2021/06/23 06:30:47;;;;;;;4.85;4.00;;;22.60;99.90;;;;;;5073431;28;20227;-64
2021/06/23 06:33:13;;;;;;;4.40;4.00;;;22.80;99.90;;;;;;5072305;28;20190;-64
2021/06/23 06:35:39;;;;;;;4.40;4.00;;;22.90;99.90;;;;;;5071748;28;20182;-59
2021/06/23 06:38:06;;;;;;;3.80;3.60;;;23.00;99.90;;;;;;5069852;28;20657;-59
2021/06/23 06:40:31;;;;;;;4.57;3.70;;;23.00;99.90;;;;;;5072966;28;20170;-64
2021/06/23 06:42:57;;;;;;;3.72;3.42;;;23.10;99.90;;;;;;5073378;28;20170;-60
2021/06/23 06:45:23;;;;;;;3.80;3.50;;;23.40;99.90;;;;;;5073914;28;20251;-60
2021/06/23 06:47:49;;;;;;;3.33;3.13;;;23.70;99.90;;;;;;5073951;28;20179;-59
2021/06/23 06:50:15;;;;;;;3.60;3.30;;;23.90;99.90;;;;;;5073829;28;20181;-64
2021/06/23 06:52:41;;;;;;;4.57;3.90;;;24.10;99.90;;;;;;5072202;28;20186;-59
2021/06/23 06:55:07;;;;;;;3.72;3.42;;;24.00;99.90;;;;;;5073529;28;20670;-58
2021/06/23 06:57:33;;;;;;;4.28;3.88;;;24.00;99.90;;;;;;5072773;28;20226;-63
2021/06/23 06:59:59;;;;;;;4.10;3.70;;;23.90;99.90;;;;;;5072525;28;20175;-64
2021/06/23 07:02:25;;;;;;;4.10;3.70;;;24.10;99.90;;;;;;5072988;28;20186;-59
2021/06/23 07:04:50;;;;;;;4.53;4.13;;;23.80;99.90;;;;;;5073632;28;20263;-60
2021/06/23 07:07:16;;;;;;;4.88;4.20;;;23.90;99.90;;;;;;5073486;28;20252;-64
2021/06/23 07:09:42;;;;;;;5.45;4.30;;;24.00;99.90;;;;;;5071981;28;20232;-64
2021/06/23 07:12:08;;;;;;;5.78;3.60;;;24.20;99.90;;;;;;5072045;28;20217;-64
2021/06/23 07:14:34;;;;;;;3.95;3.60;;;24.40;99.90;;;;;;5072978;28;20221;-65
2021/06/23 07:16:59;;;;;;;3.92;3.60;;;24.50;99.90;;;;;;5073329;28;20214;-60
2021/06/23 07:19:25;;;;;;;4.72;4.28;;;24.40;99.90;;;;;;5072099;28;20179;-65
2021/06/23 07:21:51;;;;;;;3.72;3.42;;;24.20;99.90;;;;;;5073135;28;20171;-62
2021/06/23 07:24:18;;;;;;;4.07;3.67;;;24.20;99.90;;;;;;5073596;28;20182;-59
2021/06/23 07:26:46;;;;;;;5.68;3.70;;;24.20;99.90;;;;;;5072088;28;20206;-61
2021/06/23 07:29:11;;;;;;;4.20;3.80;;;24.00;99.90;;;;;;5075999;28;20637;-65
2021/06/23 07:36:43;;;;;;;4.38;3.67;;;24.00;99.90;;;;;;5077262;28;20198;-65
2021/06/23 07:39:11;;;;;;;4.22;3.50;;;24.00;99.90;;;;;;5077121;28;20171;-65
2021/06/23 07:41:39;;;;;;;4.95;3.75;;;23.90;99.90;;;;;;5076105;28;20179;-60
2021/06/23 07:44:06;;;;;;;4.32;3.78;;;23.80;99.90;;;;;;5075580;28;20210;-65
2021/06/23 07:46:38;;;;;;;3.97;3.67;;;23.90;99.90;;;;;;5076383;28;20306;-60
2021/06/23 07:49:08;;;;;;;3.95;3.65;;;23.80;99.90;;;;;;5075285;28;20162;-59
2021/06/23 07:51:51;;;;;;;3.65;3.35;;;24.00;99.90;;;;;;5076637;28;20252;-65
2021/06/23 07:54:22;;;;;;;3.80;3.50;;;24.00;99.90;;;;;;5076770;28;20170;-62
2021/06/23 08:10:07;;;;;;;4.25;3.85;;;24.10;99.90;;;;;;5074948;28;20177;-62
2021/06/23 08:12:52;;;;;;;4.22;3.90;;;23.80;99.90;;;;;;5075587;28;20533;-57
2021/06/23 08:15:17;;;;;;;5.55;3.80;;;23.60;99.90;;;;;;5074636;28;20183;-64
2021/06/23 08:17:43;;;;;;;4.13;3.83;;;23.50;99.90;;;;;;5075397;28;20523;-61
2021/06/23 08:20:09;;;;;;;5.68;3.95;;;23.40;99.90;;;;;;5075340;28;20159;-61
2021/06/23 08:22:35;;;;;;;4.70;4.30;;;23.40;99.90;;;;;;5074487;28;20171;-59
2021/06/23 08:25:01;;;;;;;5.15;4.75;;;23.40;99.90;;;;;;5075510;28;20531;-64
2021/06/23 08:27:26;;;;;;;6.18;5.30;;;23.10;99.90;;;;;;5074168;28;20666;-64
2021/06/23 08:29:52;;;;;;;6.43;4.90;;;22.90;99.90;;;;;;5075377;28;20209;-61
2021/06/23 08:32:17;;;;;;;6.80;6.10;;;22.70;99.90;;;;;;5075096;28;20174;-59
2021/06/23 08:34:43;;;;;;;5.80;5.30;;;22.60;99.90;;;;;;5074275;28;20210;-64
2021/06/23 08:37:08;;;;;;;6.05;5.55;;;22.60;99.90;;;;;;5075649;28;20264;-64
2021/06/23 08:39:34;;;;;;;5.60;5.10;;;22.50;99.90;;;;;;5075126;28;20178;-64
2021/06/23 08:42:00;;;;;;;5.40;4.90;;;22.50;99.90;;;;;;5073940;28;20178;-62
2021/06/23 08:44:25;;;;;;;6.15;5.65;;;22.40;99.90;;;;;;5075215;28;20193;-59
2021/06/23 08:46:51;;;;;;;6.43;5.70;;;22.60;99.90;;;;;;5075123;28;20191;-58
2021/06/23 08:49:18;;;;;;;6.25;5.18;;;22.60;99.90;;;;;;5075384;28;20227;-60
2021/06/23 08:51:44;;;;;;;5.60;5.10;;;22.60;99.90;;;;;;5075079;28;20167;-61
2021/06/23 08:54:10;;;;;;;5.75;5.25;;;22.80;99.90;;;;;;5074290;28;20226;-64
2021/06/23 08:56:37;;;;;;;6.93;4.57;;;23.10;99.90;;;;;;5075006;28;20170;-64
2021/06/23 08:59:03;;;;;;;6.05;5.45;;;23.50;99.90;;;;;;5073873;28;20182;-64
2021/06/23 09:01:31;;;;;;;5.30;4.82;;;23.60;99.90;;;;;;5067578;28;20711;-64
2021/06/23 09:04:09;;;;;;;5.65;4.60;;;24.00;99.90;;;;;;5054667;28;20671;-60
2021/06/23 09:06:48;;;;;;;4.95;4.55;;;24.50;99.90;;;;;;5053898;28;20689;-60
2021/06/23 09:09:25;;;;;;;5.50;5.10;;;24.70;99.90;;;;;;5055188;28;20221;-64
2021/06/23 09:11:54;;;;;;;4.60;4.20;;;24.70;99.90;;;;;;5053752;28;20167;-64
2021/06/23 09:14:21;;;;;;;5.80;5.30;;;25.00;99.90;;;;;;5055402;28;20182;-64
2021/06/23 09:17:19;;;;;;;6.40;5.38;;;24.80;99.90;;;;;;5054085;28;20199;-62
2021/06/23 09:19:44;;;;;;;4.80;4.40;;;25.00;99.90;;;;;;5012830;28;20203;-65
2021/06/23 09:22:47;;;;;;;5.45;5.05;;;25.30;99.90;;;;;;5012882;28;20271;-65
2021/06/23 09:25:13;;;;;;;5.47;4.95;;;25.60;99.90;;;;;;5012268;28;20196;-59
2021/06/23 09:27:50;;;;;;;5.82;4.53;;;25.60;99.90;;;;;;5012435;28;20188;-63
2021/06/23 09:30:34;;;;;;;4.20;3.90;;;25.70;99.90;;;;;;5012831;28;20188;-64
2021/06/23 09:33:12;;;;;;;4.07;3.58;;;26.20;99.90;;;;;;5011294;28;20253;-63
2021/06/23 09:35:40;;;;;;;4.47;4.18;;;26.90;99.90;;;;;;5012527;28;20184;-63
2021/06/23 09:38:06;;;;;;;4.82;3.70;;;27.30;99.90;;;;;;5012212;28;20216;-58
2021/06/23 09:40:41;;;;;;;4.95;4.30;;;27.50;99.90;;;;;;5011588;28;20254;-60
2021/06/23 09:43:07;;;;;;;4.00;3.75;;;27.70;99.90;;;;;;5011173;28;20192;-63
2021/06/23 09:45:33;;;;;;;3.95;3.28;;;27.40;99.90;;;;;;5011948;28;20769;-63
2021/06/23 09:48:00;;;;;;;4.43;4.07;;;27.60;99.90;;;;;;5012325;28;20192;-62
2021/06/23 09:50:28;;;;;;;4.82;3.78;;;27.60;99.90;;;;;;5010567;28;20168;-63
2021/06/23 09:53:02;;;;;;;3.70;3.47;;;27.70;99.90;;;;;;5012384;28;20173;-63
2021/06/23 09:55:41;;;;;;;3.88;3.58;;;27.80;99.90;;;;;;5035104;28;20191;-61
2021/06/23 09:58:21;;;;;;;4.95;3.80;;;28.00;99.90;;;;;;5053956;28;20197;-63
2021/06/23 10:01:09;;;;;;;3.67;3.38;;;28.10;99.90;;;;;;5054535;28;20171;-60
2021/06/23 10:04:01;;;;;;;7.93;3.88;;;28.50;99.90;;;;;;5052840;28;20198;-63
2021/06/23 10:06:30;;;;;;;6.43;4.22;;;28.60;99.90;;;;;;5053731;28;20175;-63
2021/06/23 10:09:19;;;;;;;3.72;3.28;;;28.70;99.90;;;;;;5054381;28;20168;-60
2021/06/23 10:11:47;;;;;;;5.10;4.70;;;28.30;99.90;;;;;;5053274;28;20195;-61
2021/06/23 10:14:13;;;;;;;4.05;3.75;;;28.30;99.90;;;;;;5053461;28;20183;-63
2021/06/23 10:16:39;;;;;;;4.78;4.38;;;28.00;99.90;;;;;;5054045;28;20528;-63
2021/06/23 10:19:08;;;;;;;4.25;3.95;;;27.50;99.90;;;;;;5052626;28;20712;-63
2021/06/23 10:21:35;;;;;;;4.82;4.32;;;27.20;99.90;;;;;;5053950;28;20254;-63
2021/06/23 10:24:02;;;;;;;4.97;4.57;;;26.80;99.90;;;;;;5053353;28;20219;-62
2021/06/23 10:26:29;;;;;;;5.00;4.60;;;26.70;99.90;;;;;;5052785;28;20163;-56
2021/06/23 10:28:56;;;;;;;4.40;4.05;;;26.80;99.90;;;;;;5054051;28;20682;-62
2021/06/23 10:31:25;;;;;;;4.10;3.80;;;26.80;99.90;;;;;;5052636;28;20175;-59
2021/06/23 10:33:51;;;;;;;5.07;4.68;;;27.10;99.90;;;;;;5053921;28;20661;-62
2021/06/23 10:36:16;;;;;;;4.53;4.15;;;27.10;99.90;;;;;;5053218;28;20182;-62
2021/06/23 10:38:44;;;;;;;5.88;4.95;;;27.30;99.90;;;;;;5052545;28;20167;-57
2021/06/23 10:41:10;;;;;;;5.70;5.07;;;27.20;99.90;;;;;;5053412;28;20179;-59
2021/06/23 10:43:36;;;;;;;4.70;4.30;;;27.10;99.90;;;;;;5052377;28;20170;-62
2021/06/23 10:46:02;;;;;;;5.13;4.72;;;27.10;99.90;;;;;;5056867;28;20186;-58
2021/06/23 10:48:28;;;;;;;6.10;5.50;;;27.30;99.90;;;;;;5072507;28;20198;-59
2021/06/23 10:50:53;;;;;;;6.82;4.85;;;27.20;99.90;;;;;;5073241;28;20627;-58
2021/06/23 10:53:32;;;;;;;4.95;4.65;;;27.00;99.90;;;;;;5072285;28;20187;-58
2021/06/23 10:55:59;;;;;;;5.30;4.82;;;27.00;99.90;;;;;;5073421;28;20167;-62
2021/06/23 10:58:33;;;;;;;6.03;5.15;;;27.00;99.90;;;;;;5072344;28;20199;-60
2021/06/23 11:01:09;;;;;;;5.00;4.55;;;27.20;99.90;;;;;;5073824;28;20554;-60
2021/06/23 11:03:58;;;;;;;7.00;5.90;;;27.20;99.90;;;;;;5075353;28;20658;-61
2021/06/23 11:06:41;;;;;;;5.25;4.85;;;27.00;99.90;;;;;;5077378;28;20170;-61
2021/06/23 11:09:26;;;;;;;6.10;5.60;;;27.00;99.90;;;;;;5077706;28;20229;-60
2021/06/23 11:11:53;;;;;;;4.93;4.35;;;27.20;99.90;;;;;;5076466;28;20187;-61
2021/06/23 11:14:20;;;;;;;5.05;4.60;;;27.80;99.90;;;;;;5076199;28;20186;-64
2021/06/23 11:16:46;;;;;;;7.07;6.38;;;28.00;99.90;;;;;;5076840;28;20224;-61
2021/06/23 11:19:12;;;;;;;5.55;5.15;;;27.80;99.90;;;;;;5075737;28;20179;-61
2021/06/23 11:21:38;;;;;;;6.60;6.10;;;27.60;99.90;;;;;;5077052;28;20186;-63
2021/06/23 11:24:11;;;;;;;4.93;4.60;;;27.50;99.90;;;;;;5076598;28;20705;-58
2021/06/23 11:26:38;;;;;;;5.80;5.03;;;27.40;99.90;;;;;;5075686;28;20206;-63
2021/06/23 11:29:10;;;;;;;6.20;5.70;;;27.60;99.90;;;;;;5077126;28;20561;-60
2021/06/23 11:31:53;;;;;;;5.88;5.38;;;27.80;99.90;;;;;;5075550;28;20638;-61
2021/06/23 11:34:37;;;;;;;5.70;5.22;;;28.00;99.90;;;;;;5076922;28;20653;-64
2021/06/23 11:37:04;;;;;;;5.28;4.70;;;27.60;99.90;;;;;;5075388;28;20206;-64
2021/06/23 11:39:29;;;;;;;4.80;4.40;;;27.30;99.90;;;;;;5076561;28;20181;-63
2021/06/23 11:41:55;;;;;;;5.03;4.60;;;27.30;99.90;;;;;;5075431;28;20171;-63
2021/06/23 11:44:20;;;;;;;5.25;4.80;;;27.50;99.90;;;;;;5076839;28;20728;-63
2021/06/23 11:46:46;;;;;;;7.32;4.75;;;27.70;99.90;;;;;;5076763;28;20530;-64
2021/06/23 11:49:12;;;;;;;4.70;4.30;;;27.90;99.90;;;;;;5076390;28;20167;-60
2021/06/23 11:51:37;;;;;;;4.70;4.00;;;28.00;99.90;;;;;;5075811;28;20205;-63
2021/06/23 11:54:04;;;;;;;5.13;4.63;;;28.00;99.90;;;;;;5076079;28;20159;-63
2021/06/23 11:56:30;;;;;;;4.60;4.20;;;28.00;99.90;;;;;;5076551;28;20170;-63
2021/06/23 11:58:55;;;;;;;5.55;3.75;;;28.20;99.90;;;;;;5075246;28;20197;-59
2021/06/23 12:01:21;;;;;;;5.72;4.15;;;28.40;99.90;;;;;;5076007;28;20170;-63
2021/06/23 12:03:48;;;;;;;3.97;3.67;;;28.60;99.90;;;;;;5075239;28;20676;-63
2021/06/23 12:06:14;;;;;;;6.35;3.85;;;28.80;99.90;;;;;;5075605;28;20663;-63
2021/06/23 12:08:39;;;;;;;3.70;3.40;;;29.10;99.90;;;;;;5076188;28;20269;-63
2021/06/23 12:11:05;;;;;;;4.72;3.25;;;29.30;99.90;;;;;;5074688;28;20171;-62
2021/06/23 12:13:31;;;;;;;3.75;3.20;;;29.50;99.90;;;;;;5075589;28;20522;-65
2021/06/23 12:15:56;;;;;;;3.53;3.22;;;29.90;99.90;;;;;;5075659;28;20187;-62
2021/06/23 12:18:22;;;;;;;3.85;3.10;;;30.30;99.90;;;;;;5075321;28;20198;-62
2021/06/23 12:20:47;;;;;;;4.15;3.60;;;30.30;99.90;;;;;;5075525;28;20189;-62
2021/06/23 12:23:13;;;;;;;3.20;3.00;;;30.10;99.90;;;;;;5074502;28;20196;-63
2021/06/23 12:25:47;;;;;;;3.33;3.05;;;30.10;99.90;;;;;;5076030;28;20662;-63
2021/06/23 12:28:15;;;;;;;3.03;2.83;;;30.20;99.90;;;;;;5074680;28;20569;-61
2021/06/23 12:30:42;;;;;;;4.03;3.63;;;30.40;99.90;;;;;;5075403;28;20190;-61
2021/06/23 12:33:12;;;;;;;3.75;3.45;;;30.10;99.90;;;;;;5074328;28;20258;-58
2021/06/23 12:35:40;;;;;;;5.75;3.58;;;29.60;99.90;;;;;;5075918;28;20163;-58
2021/06/23 12:38:12;;;;;;;4.25;3.67;;;29.10;99.90;;;;;;5075677;28;20221;-61
2021/06/23 12:40:38;;;;;;;4.85;3.70;;;28.80;99.90;;;;;;5075946;28;20221;-64
2021/06/23 12:43:13;;;;;;;4.90;3.85;;;29.00;99.90;;;;;;5074629;28;20673;-63
2021/06/23 12:45:48;;;;;;;3.75;3.45;;;29.20;99.90;;;;;;5075305;28;20277;-61
2021/06/23 12:48:13;;;;;;;3.60;3.30;;;29.50;99.90;;;;;;5075183;28;20277;-63
2021/06/23 12:50:39;;;;;;;3.83;3.42;;;29.70;99.90;;;;;;5074004;28;20221;-58
2021/06/23 12:53:04;;;;;;;2.90;2.70;;;29.90;99.90;;;;;;5075053;28;20178;-62
2021/06/23 12:55:30;;;;;;;3.13;2.88;;;30.10;99.90;;;;;;5075347;28;20182;-61
2021/06/23 12:57:56;;;;;;;3.08;2.75;;;30.40;99.90;;;;;;5074748;28;20186;-62
2021/06/23 13:00:22;;;;;;;2.80;2.60;;;30.00;99.90;;;;;;5074726;28;20638;-65
2021/06/23 13:02:49;;;;;;;3.15;2.85;;;30.00;99.90;;;;;;5073616;28;20218;-64
2021/06/23 13:05:15;;;;;;;3.17;2.88;;;30.40;99.90;;;;;;5073460;28;20280;-60
2021/06/23 13:07:42;;;;;;;4.88;2.70;;;30.40;99.90;;;;;;5074769;28;20242;-63